Terminal Aerodrome Forecast
Issued by NWS Goodland, KS

Home | Current Version | Previous Version | Text Only | Print | Product List | Glossary On
Versions: 1 2 3 4 5 6 7 8 9 10 11 12 13 14 15 16 17
075
FTUS43 KGLD 302342
TAFGLD
TAF
KGLD 302342Z 0100/0124 34016G24KT P6SM VCSH OVC015
      TEMPO 0102/0104 P6SM OVC007
     FM010400 34015G23KT P6SM OVC007
     FM010600 34014G21KT P6SM OVC004
     FM011500 36017G25KT P6SM OVC008
     FM011800 01016G24KT P6SM OVC015=

USA.gov is the U.S. government's official web portal to all federal, state and local government web resources and services.